Aviation Digital Data Service (ADDS)

Output produced by METARs form (0036 UTC 24 May 2022)
found at http://www.aviationweather.gov/metar/data/
 
VDSR 240030Z 11004KT 080V170 9999 SCT015 28/25 Q1007
TAF VDSR 232300Z 2400/2418 25010KT 9999 SCT017 
     TEMPO 2406/2411 5000 TSRA SCT015 FEW017CB SCT040
       
VDSV 240030Z /////KT 5000 BR SCT015 SCT040 ///// Q////
TAF VDSV 232300Z 2400/2418 27010KT 9999 SCT017 
     TEMPO 2406/2411 5000 TSRA SCT015 FEW017CB SCT040